createdAt,value
2022-12-01T00:01:26.001Z,10.27
2022-12-01T00:03:53.904Z,10.37
2022-12-01T00:06:22.913Z,10.47
2022-12-01T00:09:14.060Z,9.57
2022-12-01T00:11:43.251Z,10.70
2022-12-01T00:14:11.039Z,10.30
2022-12-01T00:16:40.654Z,9.80
2022-12-01T00:19:08.831Z,10.47
2022-12-01T00:21:36.609Z,10.77
2022-12-01T00:24:06.192Z,10.30
2022-12-01T00:26:34.185Z,9.47
2022-12-01T00:29:01.982Z,9.83
2022-12-01T00:31:30.167Z,10.53
2022-12-01T00:33:58.112Z,10.70
2022-12-01T00:36:26.223Z,9.90
2022-12-01T00:38:54.826Z,9.90
2022-12-01T00:41:25.584Z,9.87
2022-12-01T00:43:53.658Z,10.30
2022-12-01T00:46:22.114Z,10.47
2022-12-01T00:48:50.176Z,9.37
2022-12-01T00:51:17.991Z,9.80
2022-12-01T00:53:46.112Z,10.33
2022-12-01T00:56:15.081Z,9.70
2022-12-01T00:58:44.253Z,10.13
2022-12-01T01:01:12.247Z,9.50
2022-12-01T01:03:40.253Z,9.97
2022-12-01T01:06:10.422Z,9.53
2022-12-01T01:08:38.658Z,9.27
2022-12-01T01:11:07.674Z,9.13
2022-12-01T01:13:36.152Z,9.30
2022-12-01T01:16:09.377Z,9.23
2022-12-01T01:18:37.270Z,7.80
2022-12-01T01:21:07.864Z,10.13
2022-12-01T01:23:35.905Z,9.00
2022-12-01T01:26:04.986Z,9.80
2022-12-01T01:28:33.486Z,8.90
2022-12-01T01:31:05.604Z,8.83
2022-12-01T01:33:35.081Z,9.50
2022-12-01T01:36:03.190Z,8.10
2022-12-01T01:38:31.542Z,8.43
2022-12-01T01:40:59.657Z,8.93
2022-12-01T01:43:49.289Z,7.97
2022-12-01T01:46:18.791Z,8.80
2022-12-01T01:48:52.140Z,8.37
2022-12-01T01:51:25.394Z,8.87
2022-12-01T01:53:56.506Z,8.63
2022-12-01T01:56:25.037Z,8.20
2022-12-01T01:58:54.209Z,8.43
2022-12-01T02:01:22.183Z,7.77
2022-12-01T02:03:53.581Z,8.40
2022-12-01T02:06:26.954Z,8.03
2022-12-01T02:08:54.899Z,8.33
2022-12-01T02:11:49.563Z,8.87
2022-12-01T02:14:42.552Z,8.33
2022-12-01T02:17:21.516Z,7.53
2022-12-01T02:20:17.443Z,7.93
2022-12-01T02:23:00.558Z,7.90
2022-12-01T02:25:43.305Z,8.60
2022-12-01T02:28:36.923Z,7.93
2022-12-01T02:31:14.868Z,8.20
2022-12-01T02:33:49.868Z,8.10
2022-12-01T02:36:22.886Z,8.00
2022-12-01T02:38:57.684Z,7.50
2022-12-01T02:41:29.602Z,7.47
2022-12-01T02:44:03.924Z,7.73
2022-12-01T02:46:38.608Z,7.40
2022-12-01T02:49:12.468Z,7.43
2022-12-01T02:51:44.686Z,7.53
2022-12-01T02:54:15.865Z,7.80
2022-12-01T02:56:46.113Z,7.23
2022-12-01T02:59:16.545Z,6.70
2022-12-01T03:02:02.046Z,7.13
2022-12-01T03:04:43.203Z,7.70
2022-12-01T03:07:21.279Z,7.83
2022-12-01T03:10:02.267Z,7.53
2022-12-01T03:12:38.972Z,7.40
2022-12-01T03:15:12.429Z,6.70
2022-12-01T03:17:48.049Z,7.37
2022-12-01T03:20:21.287Z,7.03
2022-12-01T03:22:54.880Z,7.43
2022-12-01T03:25:26.460Z,7.00
2022-12-01T03:28:20.182Z,7.07
2022-12-01T03:30:46.561Z,7.23
2022-12-01T03:33:20.078Z,7.13
2022-12-01T03:35:53.675Z,8.27
2022-12-01T03:38:25.356Z,7.93
2022-12-01T03:41:01.288Z,7.87
2022-12-01T03:43:33.082Z,7.73
2022-12-01T03:46:08.795Z,8.10
2022-12-01T03:48:39.485Z,7.93
2022-12-01T03:51:16.090Z,7.47
2022-12-01T03:53:51.700Z,7.60
2022-12-01T03:56:23.555Z,7.57
2022-12-01T03:58:56.919Z,7.73
2022-12-01T04:01:26.688Z,7.83
2022-12-01T04:03:56.035Z,7.67
2022-12-01T04:06:23.872Z,7.63
2022-12-01T04:08:51.889Z,8.43
2022-12-01T04:11:37.207Z,7.77
2022-12-01T04:14:05.138Z,7.90
2022-12-01T04:16:35.986Z,7.50
2022-12-01T04:19:05.248Z,8.17
2022-12-01T04:21:33.135Z,7.87
2022-12-01T04:24:01.038Z,8.53
2022-12-01T04:26:29.094Z,8.70
2022-12-01T04:28:57.352Z,8.43
2022-12-01T04:31:25.285Z,9.10
2022-12-01T04:33:53.313Z,8.23
2022-12-01T04:36:22.772Z,8.73
2022-12-01T04:38:50.816Z,8.50
2022-12-01T04:41:18.925Z,8.73
2022-12-01T04:43:46.945Z,8.60
2022-12-01T04:46:15.186Z,8.33
2022-12-01T04:48:43.570Z,8.03
2022-12-01T04:51:11.587Z,8.33
2022-12-01T04:53:41.186Z,8.10
2022-12-01T04:56:09.113Z,8.67
2022-12-01T04:58:38.372Z,8.07
2022-12-01T05:01:08.332Z,8.40
2022-12-01T05:03:37.764Z,7.83
2022-12-01T05:06:08.521Z,8.63
2022-12-01T05:08:36.588Z,9.03
2022-12-01T05:11:07.688Z,8.33
2022-12-01T05:13:35.813Z,8.60
2022-12-01T05:16:08.277Z,8.80
2022-12-01T05:18:36.597Z,7.77
2022-12-01T05:21:06.593Z,8.53
2022-12-01T05:23:36.565Z,8.37
2022-12-01T05:26:08.701Z,8.97
2022-12-01T05:28:36.988Z,8.27
2022-12-01T05:31:05.168Z,8.33
2022-12-01T05:33:33.103Z,8.50
2022-12-01T05:36:00.989Z,8.97
2022-12-01T05:38:28.924Z,8.17
2022-12-01T05:40:57.646Z,8.43
2022-12-01T05:43:29.405Z,8.33
2022-12-01T05:45:58.494Z,7.57
2022-12-01T05:48:29.356Z,9.93
2022-12-01T05:50:57.186Z,7.90
2022-12-01T05:53:25.116Z,8.33
2022-12-01T05:55:54.550Z,8.10
2022-12-01T05:58:22.447Z,8.37
2022-12-01T06:00:51.760Z,8.17
2022-12-01T06:03:19.817Z,8.07
2022-12-01T06:05:47.676Z,7.37
2022-12-01T06:08:16.878Z,7.27
2022-12-01T06:10:45.685Z,7.40
2022-12-01T06:13:13.534Z,7.70
2022-12-01T06:15:41.409Z,7.83
2022-12-01T06:18:10.717Z,7.70
2022-12-01T06:20:38.513Z,7.27
2022-12-01T06:23:06.407Z,7.20
2022-12-01T06:25:34.345Z,6.80
2022-12-01T06:28:02.504Z,6.80
2022-12-01T06:30:30.439Z,7.70
2022-12-01T06:32:58.362Z,7.33
2022-12-01T06:35:27.547Z,7.10
2022-12-01T06:37:55.633Z,6.50
2022-12-01T06:40:24.228Z,7.03
2022-12-01T06:42:52.110Z,6.97
2022-12-01T06:45:20.133Z,6.97
2022-12-01T06:47:48.513Z,7.13
2022-12-01T06:50:16.446Z,6.90
2022-12-01T06:52:45.733Z,7.20
2022-12-01T06:55:13.850Z,6.83
2022-12-01T06:57:43.834Z,7.17
2022-12-01T07:00:14.379Z,7.17
2022-12-01T07:02:42.632Z,7.23
2022-12-01T07:05:11.423Z,8.30
2022-12-01T07:07:40.373Z,7.50
2022-12-01T07:10:11.645Z,7.63
2022-12-01T07:12:39.812Z,7.77
2022-12-01T07:15:09.432Z,7.60
2022-12-01T07:17:37.822Z,8.00
2022-12-01T07:20:06.622Z,8.17
2022-12-01T07:22:34.497Z,8.47
2022-12-01T07:25:02.358Z,7.73
2022-12-01T07:27:32.810Z,8.13
2022-12-01T07:30:00.743Z,7.93
2022-12-01T07:32:28.659Z,7.90
2022-12-01T07:34:56.562Z,8.40
2022-12-01T07:37:24.492Z,8.53
2022-12-01T07:39:52.543Z,8.80
2022-12-01T07:42:20.656Z,8.57
2022-12-01T07:44:49.920Z,7.90
2022-12-01T07:47:17.927Z,8.13
2022-12-01T07:49:45.785Z,8.90
2022-12-01T07:52:13.844Z,7.77
2022-12-01T07:54:41.773Z,8.60
2022-12-01T07:57:09.702Z,8.03
2022-12-01T07:59:40.423Z,7.73
2022-12-01T08:02:11.389Z,8.47
2022-12-01T08:04:39.472Z,8.83
2022-12-01T08:07:07.345Z,8.80
2022-12-01T08:09:35.305Z,8.40
2022-12-01T08:12:03.215Z,8.30
2022-12-01T08:14:31.030Z,8.33
2022-12-01T08:16:58.969Z,8.07
2022-12-01T08:19:29.424Z,8.23
2022-12-01T08:21:57.204Z,8.47
2022-12-01T08:24:25.796Z,7.87
2022-12-01T08:26:53.657Z,9.00
2022-12-01T08:29:21.522Z,8.07
2022-12-01T08:31:49.597Z,7.33
2022-12-01T08:34:17.741Z,7.97
2022-12-01T08:36:46.989Z,7.83
2022-12-01T08:39:16.820Z,8.10
2022-12-01T08:41:44.766Z,8.83
2022-12-01T08:44:14.285Z,8.00
2022-12-01T08:46:42.280Z,8.43
2022-12-01T08:49:10.225Z,8.23
2022-12-01T08:51:38.040Z,8.43
2022-12-01T08:54:07.594Z,8.03
2022-12-01T08:56:37.515Z,7.70
2022-12-01T08:59:06.201Z,8.03
2022-12-01T09:01:34.863Z,8.17
2022-12-01T09:04:08.518Z,7.47
2022-12-01T09:06:41.724Z,7.50
2022-12-01T09:09:12.723Z,7.60
2022-12-01T09:11:43.902Z,8.10
2022-12-01T09:14:41.601Z,7.20
2022-12-01T09:17:14.824Z,6.73
2022-12-01T09:19:47.501Z,7.87
2022-12-01T09:22:18.144Z,7.07
2022-12-01T09:25:02.310Z,7.47
2022-12-01T09:27:38.796Z,6.40
2022-12-01T09:30:19.582Z,7.27
2022-12-01T09:32:47.393Z,6.73
2022-12-01T09:35:17.685Z,6.97
2022-12-01T09:37:48.671Z,6.63
2022-12-01T09:40:18.160Z,7.15
2022-12-01T09:42:48.040Z,7.10
2022-12-01T09:45:26.326Z,7.20
2022-12-01T09:47:59.392Z,7.70
2022-12-01T09:50:30.159Z,7.30
2022-12-01T09:53:01.786Z,7.03
2022-12-01T09:55:32.865Z,6.75
2022-12-01T09:58:03.376Z,6.13
2022-12-01T10:00:34.448Z,7.20
2022-12-01T10:03:13.040Z,6.63
2022-12-01T10:06:10.240Z,6.53
2022-12-01T10:08:38.457Z,6.15
2022-12-01T10:11:14.699Z,6.75
2022-12-01T10:13:43.834Z,8.60
2022-12-01T10:16:14.417Z,7.70
2022-12-01T10:18:55.274Z,7.20
2022-12-01T10:21:36.091Z,6.93
2022-12-01T10:24:25.276Z,6.63
2022-12-01T10:27:03.087Z,7.53
2022-12-01T10:29:47.248Z,7.70
2022-12-01T10:32:19.585Z,7.00
2022-12-01T10:34:48.991Z,6.80
2022-12-01T10:37:21.314Z,6.72
2022-12-01T10:39:52.251Z,6.10
2022-12-01T10:42:58.490Z,6.65
2022-12-01T10:45:29.644Z,5.97
2022-12-01T10:48:15.210Z,5.73
2022-12-01T10:50:44.136Z,6.70
2022-12-01T10:53:36.761Z,7.83
2022-12-01T10:56:09.652Z,6.90
2022-12-01T10:58:47.941Z,6.50
2022-12-01T11:01:22.944Z,6.70
2022-12-01T11:03:53.967Z,5.97
2022-12-01T11:06:25.606Z,6.90
2022-12-01T11:08:56.951Z,6.50
2022-12-01T11:11:29.200Z,6.57
2022-12-01T11:14:00.953Z,6.18
2022-12-01T11:16:41.579Z,7.85
2022-12-01T11:19:36.619Z,6.95
2022-12-01T11:22:21.352Z,6.15
2022-12-01T11:25:02.569Z,6.50
2022-12-01T11:27:34.368Z,6.45
2022-12-01T11:30:08.019Z,7.05
2022-12-01T11:32:39.955Z,7.40
2022-12-01T11:35:17.922Z,6.25
2022-12-01T11:38:13.149Z,6.47
2022-12-01T11:40:46.952Z,7.25
2022-12-01T11:43:25.330Z,7.40
2022-12-01T11:45:57.153Z,6.50
2022-12-01T11:48:27.468Z,6.70
2022-12-01T11:51:08.604Z,6.47
2022-12-01T11:53:38.489Z,7.00
2022-12-01T11:56:19.053Z,6.78
2022-12-01T11:58:50.066Z,6.50
2022-12-01T12:01:33.467Z,5.93
2022-12-01T12:04:15.303Z,5.80
2022-12-01T12:06:49.988Z,5.82
2022-12-01T12:09:45.094Z,5.85
2022-12-01T12:12:24.422Z,6.25
2022-12-01T12:15:02.276Z,5.63
2022-12-01T12:17:57.579Z,6.07
2022-12-01T12:20:43.844Z,6.15
2022-12-01T12:23:29.193Z,6.30
2022-12-01T12:26:07.508Z,6.50
2022-12-01T12:28:51.911Z,6.22
2022-12-01T12:31:29.752Z,5.82
2022-12-01T12:34:23.628Z,5.93
2022-12-01T12:37:03.059Z,7.60
2022-12-01T12:39:52.732Z,8.03
2022-12-01T12:42:29.725Z,6.20
2022-12-01T12:45:06.239Z,6.10
2022-12-01T12:47:46.591Z,6.88
2022-12-01T12:50:26.310Z,6.60
2022-12-01T12:52:59.875Z,5.75
2022-12-01T12:55:34.253Z,5.93
2022-12-01T12:58:10.933Z,6.32
2022-12-01T13:00:47.967Z,6.93
2022-12-01T13:03:20.766Z,6.68
2022-12-01T13:05:57.373Z,6.43
2022-12-01T13:08:31.411Z,5.38
2022-12-01T13:11:04.102Z,5.82
2022-12-01T13:13:38.778Z,5.43
2022-12-01T13:16:14.280Z,5.47
2022-12-01T13:18:45.687Z,5.40
2022-12-01T13:21:20.329Z,5.60
2022-12-01T13:23:50.847Z,6.43
2022-12-01T13:26:42.777Z,6.13
2022-12-01T13:29:17.138Z,5.43
2022-12-01T13:31:47.715Z,5.25
2022-12-01T13:34:27.492Z,5.22
2022-12-01T13:36:57.339Z,5.63
2022-12-01T13:39:28.056Z,5.22
2022-12-01T13:42:01.466Z,5.72
2022-12-01T13:44:33.619Z,5.38
2022-12-01T13:47:07.314Z,6.28
2022-12-01T13:49:44.089Z,5.50
2022-12-01T13:52:36.858Z,5.05
2022-12-01T13:55:27.987Z,5.40
2022-12-01T13:58:25.325Z,5.57
2022-12-01T14:00:53.534Z,4.88
2022-12-01T14:03:39.844Z,5.72
2022-12-01T14:06:21.943Z,4.85
2022-12-01T14:08:54.007Z,5.63
2022-12-01T14:11:24.734Z,5.13
2022-12-01T14:13:56.511Z,4.65
2022-12-01T14:16:25.379Z,4.22
2022-12-01T14:18:56.444Z,4.20
2022-12-01T14:21:47.234Z,4.32
2022-12-01T14:24:25.340Z,4.75
2022-12-01T14:26:54.013Z,3.90
2022-12-01T14:29:33.476Z,3.70
2022-12-01T14:32:23.298Z,3.80
2022-12-01T14:35:00.780Z,3.80
2022-12-01T14:37:38.528Z,4.00
2022-12-01T14:40:16.779Z,4.28
2022-12-01T14:43:06.070Z,4.05
2022-12-01T14:45:39.687Z,4.60
2022-12-01T14:48:12.753Z,4.25
2022-12-01T14:50:46.755Z,4.45
2022-12-01T14:53:25.083Z,4.40
2022-12-01T14:55:57.648Z,4.63
2022-12-01T14:58:28.691Z,5.05
2022-12-01T15:01:01.892Z,5.00
2022-12-01T15:03:34.222Z,5.28
2022-12-01T15:06:02.383Z,4.53
2022-12-01T15:11:25.804Z,5.60
2022-12-01T15:13:55.548Z,5.93
2022-12-01T15:16:25.463Z,5.35
2022-12-01T15:18:54.098Z,6.72
2022-12-01T15:21:25.116Z,6.00
2022-12-01T15:24:02.019Z,6.18
2022-12-01T15:26:32.748Z,5.80
2022-12-01T15:29:15.984Z,5.32
2022-12-01T15:31:45.866Z,6.00
2022-12-01T15:34:17.405Z,6.00
2022-12-01T15:36:46.036Z,6.43
2022-12-01T15:39:17.396Z,5.45
2022-12-01T15:41:49.400Z,6.70
2022-12-01T15:44:21.943Z,6.78
2022-12-01T15:46:49.759Z,6.30
2022-12-01T15:49:20.260Z,6.80
2022-12-01T15:51:50.188Z,6.80
2022-12-01T15:54:25.662Z,7.43
2022-12-01T15:56:58.608Z,7.15
2022-12-01T15:59:31.127Z,7.50
2022-12-01T16:01:59.633Z,7.00
2022-12-01T16:04:29.626Z,7.25
2022-12-01T16:07:01.758Z,7.20
2022-12-01T16:09:33.789Z,7.18
2022-12-01T16:12:25.947Z,8.02
2022-12-01T16:14:57.137Z,7.63
2022-12-01T16:17:25.612Z,8.30
2022-12-01T16:20:18.487Z,8.85
2022-12-01T16:22:47.501Z,8.82
2022-12-01T16:25:21.214Z,8.40
2022-12-01T16:27:57.097Z,7.63
2022-12-01T16:30:27.417Z,8.18
2022-12-01T16:33:02.929Z,8.27
2022-12-01T16:35:33.834Z,8.63
2022-12-01T16:38:05.359Z,8.38
2022-12-01T16:40:33.278Z,8.02
2022-12-01T16:43:02.670Z,8.43
2022-12-01T16:45:30.581Z,8.52
2022-12-01T16:47:58.469Z,7.78
2022-12-01T16:50:26.763Z,7.07
2022-12-01T16:52:56.399Z,7.63
2022-12-01T16:55:30.877Z,8.07
2022-12-01T16:57:58.885Z,7.47
2022-12-01T17:00:29.448Z,7.82
2022-12-01T17:02:58.373Z,7.60
2022-12-01T17:05:26.431Z,7.00
2022-12-01T17:07:54.529Z,7.20
2022-12-01T17:10:23.241Z,7.20
2022-12-01T17:12:51.081Z,7.22
2022-12-01T17:15:19.249Z,7.45
2022-12-01T17:17:48.610Z,7.30
2022-12-01T17:20:16.826Z,7.40
2022-12-01T17:22:44.777Z,6.55
2022-12-01T17:25:12.816Z,6.60
2022-12-01T17:27:44.134Z,6.22
2022-12-01T17:30:13.392Z,6.40
2022-12-01T17:32:41.213Z,7.05
2022-12-01T17:35:11.353Z,6.18
2022-12-01T17:37:39.543Z,6.30
2022-12-01T17:40:09.386Z,6.83
2022-12-01T17:42:37.213Z,6.87
2022-12-01T17:45:05.768Z,6.37
2022-12-01T17:47:33.557Z,6.23
2022-12-01T17:50:01.516Z,6.97
2022-12-01T17:52:31.113Z,6.87
2022-12-01T17:54:59.143Z,6.40
2022-12-01T17:57:27.120Z,5.93
2022-12-01T17:59:55.348Z,6.60
2022-12-01T18:02:23.333Z,6.43
2022-12-01T18:04:51.486Z,7.07
2022-12-01T18:07:20.360Z,7.27
2022-12-01T18:09:49.755Z,7.60
2022-12-01T18:12:17.726Z,7.17
2022-12-01T18:14:45.679Z,6.70
2022-12-01T18:17:13.553Z,6.80
2022-12-01T18:19:41.362Z,7.17
2022-12-01T18:22:09.455Z,7.17
2022-12-01T18:24:37.366Z,6.50
2022-12-01T18:27:06.586Z,6.83
2022-12-01T18:29:35.046Z,7.00
2022-12-01T18:32:02.887Z,6.40
2022-12-01T18:34:31.281Z,7.00
2022-12-01T18:36:59.864Z,6.60
2022-12-01T18:39:27.703Z,7.27
2022-12-01T18:41:56.454Z,7.47
2022-12-01T18:44:25.995Z,6.87
2022-12-01T18:46:53.934Z,7.87
2022-12-01T18:49:21.895Z,7.87
2022-12-01T18:51:49.877Z,7.90
2022-12-01T18:54:18.080Z,8.83
2022-12-01T18:56:46.011Z,8.57
2022-12-01T18:59:17.053Z,8.67
2022-12-01T19:01:47.647Z,8.37
2022-12-01T19:04:17.686Z,8.90
2022-12-01T19:06:46.807Z,9.67
2022-12-01T19:09:16.518Z,9.53
2022-12-01T19:11:44.630Z,10.43
2022-12-01T19:14:15.795Z,10.27
2022-12-01T19:16:44.322Z,11.33
2022-12-01T19:19:13.719Z,10.87
2022-12-01T19:21:42.821Z,11.03
2022-12-01T19:24:10.772Z,10.37
2022-12-01T19:26:38.664Z,10.77
2022-12-01T19:29:06.728Z,10.70
2022-12-01T19:31:34.743Z,10.37
2022-12-01T19:34:03.766Z,11.30
2022-12-01T19:36:32.997Z,10.53
2022-12-01T19:39:04.012Z,10.60
2022-12-01T19:41:35.212Z,11.43
2022-12-01T19:44:03.246Z,9.57
2022-12-01T19:46:31.107Z,9.47
2022-12-01T19:49:01.390Z,9.60
2022-12-01T19:51:35.126Z,10.07
2022-12-01T19:54:04.220Z,9.53
2022-12-01T19:56:32.456Z,9.83
2022-12-01T19:59:00.756Z,9.17
2022-12-01T20:01:29.517Z,9.33
2022-12-01T20:03:57.482Z,10.40
2022-12-01T20:06:27.759Z,9.63
2022-12-01T20:08:58.933Z,8.97
2022-12-01T20:11:29.655Z,8.87
2022-12-01T20:13:57.641Z,9.63
2022-12-01T20:16:27.239Z,8.57
2022-12-01T20:18:56.236Z,8.73
2022-12-01T20:21:26.122Z,9.03
2022-12-01T20:23:58.949Z,8.33
2022-12-01T20:26:30.838Z,8.60
2022-12-01T20:29:01.943Z,8.60
2022-12-01T20:31:31.358Z,8.38
2022-12-01T20:34:00.937Z,8.23
2022-12-01T20:36:29.132Z,9.03
2022-12-01T20:38:58.473Z,8.07
2022-12-01T20:41:26.557Z,8.27
2022-12-01T20:43:54.878Z,8.87
2022-12-01T20:46:22.779Z,8.30
2022-12-01T20:48:50.843Z,8.17
2022-12-01T20:51:19.442Z,8.00
2022-12-01T20:54:05.389Z,7.97
2022-12-01T20:56:35.753Z,7.87
2022-12-01T20:59:03.584Z,7.33
2022-12-01T21:01:31.723Z,8.57
2022-12-01T21:03:59.907Z,8.20
2022-12-01T21:06:29.136Z,8.33
2022-12-01T21:08:58.792Z,7.80
2022-12-01T21:11:44.463Z,8.10
2022-12-01T21:14:17.568Z,8.67
2022-12-01T21:16:49.352Z,8.13
2022-12-01T21:19:23.747Z,8.30
2022-12-01T21:21:51.778Z,8.50
2022-12-01T21:24:22.348Z,7.57
2022-12-01T21:26:51.784Z,7.87
2022-12-01T21:29:24.922Z,8.97
2022-12-01T21:31:54.639Z,8.27
2022-12-01T21:34:24.425Z,8.27
2022-12-01T21:36:55.559Z,8.70
2022-12-01T21:39:25.147Z,7.73
2022-12-01T21:41:56.005Z,8.30
2022-12-01T21:44:32.294Z,8.67
2022-12-01T21:47:04.561Z,8.87
2022-12-01T21:49:40.013Z,8.60
2022-12-01T21:52:15.492Z,8.33
2022-12-01T21:54:43.567Z,8.23
2022-12-01T21:57:30.376Z,8.93
2022-12-01T22:00:25.691Z,9.10
2022-12-01T22:02:59.565Z,8.80
2022-12-01T22:05:32.582Z,8.63
2022-12-01T22:08:07.250Z,9.27
2022-12-01T22:11:00.432Z,9.37
2022-12-01T22:13:36.325Z,8.50
2022-12-01T22:16:05.871Z,8.83
2022-12-01T22:18:37.962Z,9.60
2022-12-01T22:21:34.437Z,8.90
2022-12-01T22:24:26.752Z,8.40
2022-12-01T22:27:04.224Z,8.90
2022-12-01T22:29:34.956Z,8.70
2022-12-01T22:32:39.635Z,7.57
2022-12-01T22:35:29.970Z,7.90
2022-12-01T22:38:15.223Z,9.00
2022-12-01T22:40:51.569Z,9.20
2022-12-01T22:43:31.187Z,9.20
2022-12-01T22:46:11.202Z,8.77
2022-12-01T22:48:42.759Z,8.43
2022-12-01T22:51:22.779Z,9.00
2022-12-01T22:53:52.910Z,8.73
2022-12-01T22:56:28.188Z,10.00
2022-12-01T22:58:56.981Z,8.93
2022-12-01T23:01:30.566Z,8.67
2022-12-01T23:04:22.548Z,8.77
2022-12-01T23:07:09.802Z,8.60
2022-12-01T23:09:41.298Z,8.53
2022-12-01T23:12:26.644Z,8.30
2022-12-01T23:14:59.938Z,8.90
2022-12-01T23:17:31.601Z,8.97
2022-12-01T23:20:20.100Z,8.47
2022-12-01T23:22:48.648Z,8.70
2022-12-01T23:25:19.434Z,8.50
2022-12-01T23:27:50.314Z,9.00
2022-12-01T23:30:20.917Z,8.87
2022-12-01T23:32:57.351Z,9.40
2022-12-01T23:35:26.895Z,9.63
2022-12-01T23:37:55.356Z,8.27
2022-12-01T23:40:30.383Z,8.93
2022-12-01T23:43:00.018Z,9.60
2022-12-01T23:45:29.235Z,9.17
2022-12-01T23:47:58.377Z,9.20
2022-12-01T23:50:28.486Z,8.07
2022-12-01T23:52:56.707Z,8.73
2022-12-01T23:55:28.863Z,9.00
2022-12-01T23:57:57.864Z,7.63
